Time;durP1;ratioP1;P1;durP2;ratioP2;P2;SDS_P1;SDS_P2;PMS_P1;PMS_P2;Temp;Humidity;BMP_temperature;BMP_pressure;BME280_temperature;BME280_humidity;BME280_pressure;Samples;Min_cycle;Max_cycle;Signal;HPM_P1;HPM_P2
2020/12/24 00:01:53;;;;;;;4.57;1.40;;;9.90;99.90;;;;;;5014416;28;20556;-75
2020/12/24 00:04:19;;;;;;;2.70;1.33;;;9.90;99.90;;;;;;5032152;28;20191;-75
2020/12/24 00:06:44;;;;;;;2.53;1.50;;;9.90;99.90;;;;;;5030534;28;20288;-76
2020/12/24 00:09:10;;;;;;;5.33;1.80;;;9.90;99.90;;;;;;5030798;28;20201;-74
2020/12/24 00:11:35;;;;;;;5.87;2.07;;;9.80;99.90;;;;;;5030848;28;20174;-75
2020/12/24 00:14:01;;;;;;;4.00;1.17;;;9.90;99.90;;;;;;5031898;28;20256;-75
2020/12/24 00:16:27;;;;;;;5.77;1.63;;;10.00;99.90;;;;;;5030606;28;20206;-75
2020/12/24 00:18:52;;;;;;;8.80;2.00;;;10.00;99.90;;;;;;5030641;28;20547;-75
2020/12/24 00:21:18;;;;;;;4.17;1.37;;;10.00;99.90;;;;;;5014136;28;20174;-74
2020/12/24 00:23:43;;;;;;;8.70;1.70;;;10.00;99.90;;;;;;5014344;28;20174;-74
2020/12/24 00:26:09;;;;;;;3.90;1.30;;;9.90;99.90;;;;;;5014080;28;20249;-74
2020/12/24 00:28:34;;;;;;;8.97;1.70;;;9.80;99.90;;;;;;5014068;28;20183;-75
2020/12/24 00:31:00;;;;;;;8.93;1.60;;;9.80;99.90;;;;;;5014176;28;20286;-74
2020/12/24 00:33:26;;;;;;;6.23;1.73;;;9.70;99.90;;;;;;5030630;28;20175;-74
2020/12/24 00:35:52;;;;;;;3.00;1.00;;;9.70;99.90;;;;;;5014099;28;20241;-75
2020/12/24 00:38:18;;;;;;;3.30;1.20;;;9.60;99.90;;;;;;5031678;28;20179;-75
2020/12/24 00:40:43;;;;;;;4.97;1.60;;;9.60;99.90;;;;;;5030580;28;20289;-75
2020/12/24 00:43:09;;;;;;;8.10;1.73;;;9.60;99.90;;;;;;5030597;28;20213;-76
2020/12/24 00:45:34;;;;;;;8.57;1.93;;;9.70;99.90;;;;;;5031662;28;20264;-77
2020/12/24 00:48:00;;;;;;;4.67;1.23;;;9.60;99.90;;;;;;5031410;28;20187;-74
2020/12/24 00:50:25;;;;;;;8.73;1.60;;;9.60;99.90;;;;;;5030489;28;20198;-76
2020/12/24 00:52:51;;;;;;;11.43;1.73;;;9.70;99.90;;;;;;5031717;28;20274;-75
2020/12/24 00:55:16;;;;;;;6.87;1.40;;;9.60;99.90;;;;;;5030333;28;20202;-75
2020/12/24 00:57:42;;;;;;;6.43;1.13;;;9.60;99.90;;;;;;5030285;28;20183;-75
2020/12/24 01:00:08;;;;;;;7.87;1.57;;;9.60;99.90;;;;;;5014952;28;20528;-76
2020/12/24 01:02:34;;;;;;;9.77;1.80;;;9.60;99.90;;;;;;5034065;28;20180;-76
2020/12/24 01:05:00;;;;;;;9.67;1.47;;;9.70;99.90;;;;;;5017616;28;20650;-76
2020/12/24 01:07:25;;;;;;;5.43;1.80;;;9.70;99.90;;;;;;5033695;28;20226;-77
2020/12/24 01:09:51;;;;;;;11.03;2.10;;;9.70;99.90;;;;;;5033910;28;20199;-77
2020/12/24 01:12:17;;;;;;;8.30;1.47;;;9.80;99.90;;;;;;5017481;28;20175;-75
2020/12/24 01:14:43;;;;;;;5.93;1.30;;;9.90;99.90;;;;;;5017341;28;20179;-75
2020/12/24 01:17:09;;;;;;;7.97;1.93;;;9.90;99.90;;;;;;5033928;28;20211;-76
2020/12/24 01:19:34;;;;;;;5.80;1.57;;;10.00;99.90;;;;;;5033607;28;20234;-76
2020/12/24 01:22:00;;;;;;;8.90;1.80;;;9.90;99.90;;;;;;5008809;28;20175;-76
2020/12/24 01:24:25;;;;;;;9.20;1.93;;;9.90;99.90;;;;;;4997475;28;20212;-75
2020/12/24 01:26:51;;;;;;;7.50;1.83;;;9.90;99.90;;;;;;4997467;28;20188;-75
2020/12/24 01:29:16;;;;;;;8.20;2.00;;;10.00;99.90;;;;;;4997483;28;20249;-76
2020/12/24 01:31:46;;;;;;;7.77;1.77;;;10.00;99.90;;;;;;5013728;28;20178;-76
2020/12/24 01:34:15;;;;;;;9.10;2.20;;;9.90;99.90;;;;;;4997473;28;20178;-75
2020/12/24 01:36:41;;;;;;;10.27;1.80;;;9.90;99.90;;;;;;4997690;28;20273;-76
2020/12/24 01:39:07;;;;;;;7.97;1.70;;;9.90;99.90;;;;;;4997276;28;20294;-76
2020/12/24 01:41:32;;;;;;;7.43;1.77;;;9.90;99.90;;;;;;4997295;28;20557;-76
2020/12/24 01:43:58;;;;;;;8.97;1.83;;;9.90;99.90;;;;;;4981031;28;20187;-76
2020/12/24 01:46:24;;;;;;;10.00;2.00;;;9.90;99.90;;;;;;5013250;28;20203;-76
2020/12/24 01:48:50;;;;;;;9.27;1.83;;;9.80;99.90;;;;;;4997272;28;20643;-74
2020/12/24 01:51:25;;;;;;;10.90;2.00;;;9.80;99.90;;;;;;4997002;28;20203;-75
2020/12/24 01:53:51;;;;;;;5.67;1.57;;;9.80;99.90;;;;;;4997340;28;20174;-74
2020/12/24 01:56:17;;;;;;;8.70;1.67;;;9.80;99.90;;;;;;4996929;28;20177;-74
2020/12/24 01:58:42;;;;;;;10.67;1.67;;;9.80;99.90;;;;;;4980869;28;20631;-75
2020/12/24 02:01:08;;;;;;;9.60;1.40;;;9.80;99.90;;;;;;4997098;28;20176;-75
2020/12/24 02:03:33;;;;;;;11.20;1.80;;;9.80;99.90;;;;;;4997092;28;20268;-75
2020/12/24 02:05:59;;;;;;;10.57;1.80;;;9.80;99.90;;;;;;4996805;28;20192;-76
2020/12/24 02:08:24;;;;;;;11.43;1.80;;;9.80;99.90;;;;;;4980439;28;20176;-76
2020/12/24 02:10:51;;;;;;;6.47;1.80;;;9.70;99.90;;;;;;4996888;28;20197;-74
2020/12/24 02:13:16;;;;;;;6.73;1.53;;;9.60;99.90;;;;;;4996141;28;20659;-74
2020/12/24 02:15:42;;;;;;;12.40;1.97;;;9.60;99.90;;;;;;5014221;28;20171;-77
2020/12/24 02:18:08;;;;;;;12.73;2.03;;;9.50;99.90;;;;;;5012806;28;20203;-76
2020/12/24 02:20:34;;;;;;;9.50;1.90;;;9.50;99.90;;;;;;5012851;28;20234;-76
2020/12/24 02:22:59;;;;;;;6.60;1.90;;;9.50;99.90;;;;;;4996738;28;20172;-75
2020/12/24 02:25:25;;;;;;;7.90;1.90;;;9.50;99.90;;;;;;4996550;28;20270;-74
2020/12/24 02:27:50;;;;;;;8.93;1.93;;;9.50;99.90;;;;;;4980033;28;20242;-74
2020/12/24 02:30:16;;;;;;;10.63;1.83;;;9.50;99.90;;;;;;4996547;28;20203;-76
2020/12/24 02:32:41;;;;;;;9.60;2.17;;;9.50;99.90;;;;;;5012697;28;20182;-76
2020/12/24 02:35:07;;;;;;;12.17;2.00;;;9.50;99.90;;;;;;5013819;28;20168;-77
2020/12/24 02:37:32;;;;;;;6.03;1.90;;;9.50;99.90;;;;;;5017130;28;20184;-76
2020/12/24 02:39:58;;;;;;;15.40;2.30;;;9.50;99.90;;;;;;5027486;28;20746;-76
2020/12/24 02:42:24;;;;;;;8.07;1.90;;;9.40;99.90;;;;;;5024038;28;20665;-76
2020/12/24 02:44:49;;;;;;;7.43;1.83;;;9.40;99.90;;;;;;5032231;28;20549;-74
2020/12/24 02:47:15;;;;;;;9.33;1.90;;;9.40;99.90;;;;;;5015439;28;20211;-74
2020/12/24 02:49:40;;;;;;;11.77;2.03;;;9.40;99.90;;;;;;4999113;28;20199;-76
2020/12/24 02:52:06;;;;;;;10.17;1.90;;;9.30;99.90;;;;;;5032071;28;20180;-76
2020/12/24 02:54:31;;;;;;;10.17;2.53;;;9.30;99.90;;;;;;5015706;28;20183;-76
2020/12/24 02:56:59;;;;;;;12.00;2.00;;;9.40;99.90;;;;;;5031846;28;20232;-74
2020/12/24 02:59:24;;;;;;;9.73;1.80;;;9.50;99.90;;;;;;5015454;28;20222;-76
2020/12/24 03:01:50;;;;;;;12.10;2.27;;;9.30;99.90;;;;;;5031891;28;20186;-76
2020/12/24 03:04:15;;;;;;;11.20;2.30;;;9.40;99.90;;;;;;5015374;28;20195;-75
2020/12/24 03:06:41;;;;;;;14.17;2.13;;;9.40;99.90;;;;;;4998753;28;20233;-76
2020/12/24 03:09:06;;;;;;;11.07;2.23;;;9.30;99.90;;;;;;4999029;28;20206;-77
2020/12/24 03:11:32;;;;;;;9.00;2.03;;;9.30;99.90;;;;;;4999024;28;20626;-75
2020/12/24 03:13:57;;;;;;;12.63;1.90;;;9.40;99.90;;;;;;5015313;28;20579;-75
2020/12/24 03:16:23;;;;;;;8.73;1.67;;;9.40;99.90;;;;;;5031427;28;20218;-75
2020/12/24 03:18:49;;;;;;;7.27;2.00;;;9.40;99.90;;;;;;5031501;28;20188;-75
2020/12/24 03:21:14;;;;;;;9.13;1.90;;;9.40;99.90;;;;;;5015111;28;20171;-75
2020/12/24 03:23:40;;;;;;;8.07;1.70;;;9.30;99.90;;;;;;4998045;28;20560;-75
2020/12/24 03:26:05;;;;;;;10.73;2.20;;;9.40;99.90;;;;;;5014648;28;20253;-76
2020/12/24 03:28:31;;;;;;;11.00;1.90;;;9.30;99.90;;;;;;5031568;28;20170;-74
2020/12/24 03:30:56;;;;;;;8.37;1.73;;;9.10;99.90;;;;;;5031307;28;20195;-75
2020/12/24 03:33:22;;;;;;;6.87;1.50;;;8.90;99.90;;;;;;5031326;28;20657;-75
2020/12/24 03:35:47;;;;;;;8.90;1.93;;;8.70;99.90;;;;;;4998449;28;20343;-76
2020/12/24 03:38:13;;;;;;;6.10;1.50;;;8.50;99.90;;;;;;5031245;28;20185;-77
2020/12/24 03:40:38;;;;;;;7.53;1.80;;;8.30;99.90;;;;;;4998211;28;20199;-75
2020/12/24 03:43:04;;;;;;;7.83;1.53;;;8.20;99.90;;;;;;5013960;28;20202;-75
2020/12/24 03:45:29;;;;;;;6.03;1.77;;;8.20;99.90;;;;;;5014830;28;20186;-77
2020/12/24 03:47:55;;;;;;;7.43;1.40;;;8.30;99.90;;;;;;5030945;28;20268;-76
2020/12/24 03:50:21;;;;;;;10.30;1.60;;;8.20;99.90;;;;;;5032249;28;20201;-76
2020/12/24 03:52:46;;;;;;;8.83;2.30;;;8.20;99.90;;;;;;5014840;28;20231;-76
2020/12/24 03:55:12;;;;;;;8.53;1.60;;;8.20;99.90;;;;;;5031101;28;20479;-75
2020/12/24 03:57:37;;;;;;;12.67;2.30;;;8.20;99.90;;;;;;5030807;28;20390;-75
2020/12/24 04:00:04;;;;;;;7.87;1.90;;;8.20;99.90;;;;;;5014352;28;20230;-74
2020/12/24 04:02:29;;;;;;;8.57;1.97;;;8.20;99.90;;;;;;5032095;28;20171;-75
2020/12/24 04:04:55;;;;;;;10.47;1.93;;;8.30;99.90;;;;;;5032328;28;20539;-74
2020/12/24 04:07:20;;;;;;;9.07;2.13;;;8.30;99.90;;;;;;5014370;28;20675;-75
2020/12/24 04:09:46;;;;;;;9.17;2.00;;;8.30;99.90;;;;;;5030823;28;20571;-74
2020/12/24 04:12:11;;;;;;;9.47;1.90;;;8.40;99.90;;;;;;5014502;28;20175;-75
2020/12/24 04:14:37;;;;;;;13.70;1.97;;;8.40;99.90;;;;;;4998033;28;20629;-75
2020/12/24 04:17:03;;;;;;;10.80;2.00;;;8.50;99.90;;;;;;5014303;28;20179;-75
2020/12/24 04:19:28;;;;;;;8.13;1.60;;;8.50;99.90;;;;;;5014143;28;20205;-75
2020/12/24 04:21:54;;;;;;;11.43;1.97;;;8.50;99.90;;;;;;5030774;28;20275;-74
2020/12/24 04:24:19;;;;;;;11.17;1.87;;;8.50;99.90;;;;;;5014802;28;20183;-78
2020/12/24 04:26:45;;;;;;;8.20;1.87;;;8.60;99.90;;;;;;5031794;28;20195;-79
2020/12/24 04:29:10;;;;;;;9.87;1.93;;;8.50;99.90;;;;;;4998241;28;20908;-79
2020/12/24 04:31:45;;;;;;;8.10;1.97;;;8.50;99.90;;;;;;5014356;28;20182;-78
2020/12/24 04:34:10;;;;;;;5.47;1.70;;;8.50;99.90;;;;;;5014347;28;20181;-77
2020/12/24 04:36:36;;;;;;;10.43;2.17;;;8.50;99.90;;;;;;5035392;28;20289;-79
2020/12/24 04:39:02;;;;;;;10.60;2.10;;;8.60;99.90;;;;;;5034688;28;20205;-78
2020/12/24 04:41:28;;;;;;;9.53;1.50;;;8.50;99.90;;;;;;5018112;28;20214;-77
2020/12/24 04:43:53;;;;;;;7.83;1.63;;;8.50;99.90;;;;;;5018193;28;20175;-78
2020/12/24 04:46:19;;;;;;;6.73;1.37;;;8.50;99.90;;;;;;5001476;28;20294;-78
2020/12/24 04:48:44;;;;;;;5.20;1.50;;;8.50;99.90;;;;;;5001662;28;20206;-79
2020/12/24 04:51:10;;;;;;;12.53;2.17;;;8.50;99.90;;;;;;5017844;28;20203;-78
2020/12/24 04:53:37;;;;;;;7.03;1.63;;;8.50;99.90;;;;;;5017935;28;20181;-78
2020/12/24 04:56:02;;;;;;;9.30;1.77;;;8.50;99.90;;;;;;5001422;28;20213;-76
2020/12/24 04:58:28;;;;;;;10.57;1.90;;;8.50;99.90;;;;;;5001512;28;20638;-77
2020/12/24 05:00:53;;;;;;;8.67;1.70;;;8.50;99.90;;;;;;5017683;28;20684;-77
2020/12/24 05:03:20;;;;;;;11.53;1.60;;;8.50;99.90;;;;;;5001498;28;20645;-78
2020/12/24 05:05:45;;;;;;;7.70;1.93;;;8.50;99.90;;;;;;5017631;28;20196;-78
2020/12/24 05:08:11;;;;;;;8.43;1.70;;;8.50;99.90;;;;;;5001154;28;20171;-77
2020/12/24 05:10:37;;;;;;;5.63;1.67;;;8.50;99.90;;;;;;5037328;28;20195;-77
2020/12/24 05:13:16;;;;;;;11.93;2.10;;;8.50;99.90;;;;;;5017714;28;20203;-77
2020/12/24 05:15:42;;;;;;;8.50;1.93;;;8.50;99.90;;;;;;5033911;28;20669;-75
2020/12/24 05:18:26;;;;;;;8.77;1.83;;;8.50;99.90;;;;;;5017266;28;20183;-74
2020/12/24 05:20:52;;;;;;;9.57;1.90;;;8.50;99.90;;;;;;5033718;28;20202;-75
2020/12/24 05:23:18;;;;;;;6.57;1.40;;;8.40;99.90;;;;;;5017275;28;20557;-75
2020/12/24 05:25:45;;;;;;;13.47;1.90;;;8.40;99.90;;;;;;5033715;28;20603;-75
2020/12/24 05:28:21;;;;;;;8.93;1.73;;;8.30;99.90;;;;;;5013390;28;20628;-76
2020/12/24 05:30:47;;;;;;;8.33;1.70;;;8.20;99.90;;;;;;5017237;28;20646;-75
2020/12/24 05:33:30;;;;;;;10.20;1.67;;;8.20;99.90;;;;;;5000693;28;20676;-74
2020/12/24 05:36:18;;;;;;;13.27;1.50;;;8.20;99.90;;;;;;5017745;28;20633;-75
2020/12/24 05:38:44;;;;;;;7.07;1.90;;;8.20;99.90;;;;;;5034702;28;20186;-76
2020/12/24 05:41:30;;;;;;;8.77;1.70;;;8.20;99.90;;;;;;5000730;28;20207;-75
2020/12/24 05:44:00;;;;;;;6.90;1.63;;;8.10;99.90;;;;;;5000593;28;20188;-76
2020/12/24 05:46:37;;;;;;;14.33;2.20;;;8.10;99.90;;;;;;5015603;28;20294;-76
2020/12/24 05:49:09;;;;;;;9.40;1.87;;;8.00;99.90;;;;;;5018063;28;20195;-77
2020/12/24 05:51:34;;;;;;;11.97;2.03;;;8.10;99.90;;;;;;5033151;28;20695;-76
2020/12/24 05:54:00;;;;;;;9.23;2.23;;;8.00;99.90;;;;;;5000326;28;20179;-76
2020/12/24 05:56:25;;;;;;;6.90;1.87;;;8.00;99.90;;;;;;5016312;28;20182;-76
2020/12/24 05:58:51;;;;;;;1.53;1.00;;;8.00;99.90;;;;;;5032853;28;20241;-78
2020/12/24 06:01:17;;;;;;;1.00;0.90;;;7.30;99.90;;;;;;5057164;22;20263;-79
2020/12/24 06:03:57;;;;;;;2.27;1.40;;;6.70;99.90;;;;;;5033491;28;20179;-77
2020/12/24 06:06:22;;;;;;;2.17;1.50;;;6.20;99.90;;;;;;5016954;28;20674;-77
2020/12/24 06:08:48;;;;;;;2.70;1.67;;;5.90;99.90;;;;;;5032895;28;20210;-78
2020/12/24 06:11:13;;;;;;;1.93;1.83;;;5.70;99.90;;;;;;5017150;28;20199;-76
2020/12/24 06:13:43;;;;;;;2.17;1.97;;;5.60;99.90;;;;;;5016821;28;20172;-75
2020/12/24 06:16:13;;;;;;;2.30;1.97;;;5.50;99.90;;;;;;5016591;28;20664;-76
2020/12/24 06:18:40;;;;;;;2.00;1.53;;;5.40;99.90;;;;;;5017106;28;20252;-76
2020/12/24 06:21:13;;;;;;;1.47;1.37;;;5.30;99.90;;;;;;5016565;28;20226;-76
2020/12/24 06:23:38;;;;;;;1.67;1.57;;;5.10;99.90;;;;;;5034297;28;20198;-76
2020/12/24 06:26:05;;;;;;;3.27;2.47;;;5.00;99.90;;;;;;5016000;28;20175;-76
2020/12/24 06:28:33;;;;;;;1.23;1.13;;;4.90;99.90;;;;;;5016277;28;20178;-76
2020/12/24 06:30:59;;;;;;;1.20;1.10;;;4.90;99.90;;;;;;5015974;28;20195;-76
2020/12/24 06:33:28;;;;;;;0.90;0.90;;;4.70;99.90;;;;;;5015928;28;20179;-76
2020/12/24 06:35:54;;;;;;;1.27;1.17;;;4.60;99.90;;;;;;5016059;28;20175;-76
2020/12/24 06:38:40;;;;;;;1.00;0.90;;;4.60;99.90;;;;;;5032445;28;20232;-76
2020/12/24 06:41:23;;;;;;;1.23;1.00;;;4.50;99.90;;;;;;5032477;28;20320;-76
2020/12/24 06:43:49;;;;;;;0.73;0.73;;;4.40;99.90;;;;;;5016487;28;20653;-76
2020/12/24 06:46:15;;;;;;;0.80;0.80;;;4.30;99.90;;;;;;5015371;28;20203;-76
2020/12/24 06:48:40;;;;;;;1.57;1.40;;;4.20;99.90;;;;;;5016008;28;20262;-76
2020/12/24 06:51:06;;;;;;;2.43;1.77;;;4.10;99.90;;;;;;5015747;28;20194;-76
2020/12/24 06:53:32;;;;;;;0.70;0.70;;;4.10;99.90;;;;;;5016209;28;20213;-76
2020/12/24 06:56:16;;;;;;;1.17;0.80;;;4.10;99.90;;;;;;5032351;28;20229;-75
2020/12/24 06:58:45;;;;;;;1.20;1.10;;;4.00;99.90;;;;;;5031635;28;20255;-76
2020/12/24 07:01:30;;;;;;;0.70;0.70;;;3.90;99.90;;;;;;5031945;28;20703;-75
2020/12/24 07:04:00;;;;;;;1.10;1.00;;;3.90;99.90;;;;;;5031917;28;20163;-76
2020/12/24 07:06:41;;;;;;;1.30;1.10;;;3.90;99.90;;;;;;5015434;28;20195;-75
2020/12/24 07:09:07;;;;;;;0.90;0.90;;;3.90;99.90;;;;;;5032777;28;20175;-75
2020/12/24 07:11:40;;;;;;;1.23;1.10;;;3.80;99.90;;;;;;5015001;28;20175;-76
2020/12/24 07:14:05;;;;;;;1.10;1.00;;;3.80;99.90;;;;;;5031614;28;20178;-76
2020/12/24 07:16:47;;;;;;;0.70;0.70;;;3.80;99.90;;;;;;5010526;28;20179;-75
2020/12/24 07:19:16;;;;;;;0.80;0.80;;;3.80;99.90;;;;;;5020004;28;20270;-76
2020/12/24 07:21:52;;;;;;;1.00;0.90;;;3.80;99.90;;;;;;5004820;28;20333;-75
2020/12/24 07:24:28;;;;;;;0.80;0.80;;;3.70;99.90;;;;;;5007365;28;20171;-77
2020/12/24 07:26:56;;;;;;;1.20;1.10;;;3.70;99.90;;;;;;5020762;28;20198;-77
2020/12/24 07:29:21;;;;;;;1.33;1.00;;;3.80;99.90;;;;;;5022528;28;20175;-75
2020/12/24 07:31:47;;;;;;;1.53;1.00;;;3.70;99.90;;;;;;5017542;28;20214;-75
2020/12/24 07:34:12;;;;;;;1.20;1.10;;;3.70;99.90;;;;;;5024474;28;20174;-76
2020/12/24 07:36:38;;;;;;;2.80;1.40;;;3.70;99.90;;;;;;5016203;28;20179;-75
2020/12/24 07:39:03;;;;;;;1.20;1.10;;;3.70;99.90;;;;;;5022728;28;20176;-77
2020/12/24 07:41:29;;;;;;;1.50;1.37;;;3.70;99.90;;;;;;5023417;28;20701;-77
2020/12/24 07:43:54;;;;;;;1.50;1.40;;;3.70;99.90;;;;;;5015091;28;20645;-77
2020/12/24 07:46:21;;;;;;;2.03;1.27;;;3.60;99.90;;;;;;5028865;28;20629;-78
2020/12/24 07:48:48;;;;;;;1.40;1.30;;;3.70;99.90;;;;;;4995986;28;20193;-78
2020/12/24 07:51:14;;;;;;;1.73;1.63;;;3.70;99.90;;;;;;5022087;28;20269;-78
2020/12/24 07:53:39;;;;;;;1.77;1.67;;;3.70;99.90;;;;;;5019697;28;20259;-79
2020/12/24 07:56:05;;;;;;;2.13;1.50;;;3.70;99.90;;;;;;5001236;28;20634;-78
2020/12/24 07:58:31;;;;;;;2.00;1.80;;;3.60;99.90;;;;;;5012940;28;20671;-78
2020/12/24 08:00:58;;;;;;;3.50;2.83;;;3.60;99.90;;;;;;5011145;28;20685;-79
2020/12/24 08:03:24;;;;;;;2.87;2.10;;;3.70;99.90;;;;;;5011603;28;20183;-78
2020/12/24 08:05:50;;;;;;;2.37;2.10;;;3.70;99.90;;;;;;5014741;28;20201;-78
2020/12/24 08:08:22;;;;;;;2.23;2.03;;;3.60;99.90;;;;;;5029215;28;20186;-77
2020/12/24 08:10:47;;;;;;;6.70;4.43;;;3.60;99.90;;;;;;5015836;28;20246;-77
2020/12/24 08:13:13;;;;;;;2.87;2.53;;;3.60;99.90;;;;;;5014553;28;20171;-77
2020/12/24 08:15:40;;;;;;;3.20;2.27;;;3.70;99.90;;;;;;5015112;28;20244;-77
2020/12/24 08:18:09;;;;;;;2.53;2.33;;;3.70;99.90;;;;;;5014992;28;20209;-78
2020/12/24 08:20:59;;;;;;;2.67;2.43;;;3.70;99.90;;;;;;5009966;28;20198;-77
2020/12/24 08:23:35;;;;;;;4.10;3.50;;;3.70;99.90;;;;;;5032744;28;20183;-75
2020/12/24 08:26:01;;;;;;;4.10;3.30;;;3.70;99.90;;;;;;5022415;28;20206;-75
2020/12/24 08:28:26;;;;;;;3.10;2.80;;;3.70;99.90;;;;;;5001502;28;20244;-76
2020/12/24 08:30:52;;;;;;;3.20;2.70;;;3.70;99.90;;;;;;5030119;28;20202;-76
2020/12/24 08:33:18;;;;;;;3.13;2.83;;;3.70;99.90;;;;;;4994140;28;20196;-77
2020/12/24 08:35:43;;;;;;;3.53;3.03;;;3.70;99.90;;;;;;5024260;28;20237;-77
2020/12/24 08:38:13;;;;;;;3.43;3.13;;;3.80;99.90;;;;;;5013291;28;20202;-79
2020/12/24 08:40:39;;;;;;;2.83;2.63;;;3.90;99.90;;;;;;5027580;28;20207;-79
2020/12/24 08:43:09;;;;;;;3.00;2.70;;;4.00;99.90;;;;;;5013075;28;20186;-78
2020/12/24 08:45:45;;;;;;;2.80;2.37;;;4.00;99.90;;;;;;5014782;28;20178;-79
2020/12/24 08:48:26;;;;;;;3.83;2.90;;;4.00;99.90;;;;;;5014310;28;20209;-78
2020/12/24 08:50:52;;;;;;;3.30;3.00;;;4.00;99.90;;;;;;5016293;28;20316;-78
2020/12/24 08:53:22;;;;;;;5.50;3.03;;;4.00;99.90;;;;;;5014160;28;20268;-79
2020/12/24 08:55:47;;;;;;;4.03;3.17;;;4.00;99.90;;;;;;5031490;28;20179;-79
2020/12/24 08:58:13;;;;;;;4.30;3.20;;;3.90;99.90;;;;;;5031858;28;20186;-77
2020/12/24 09:00:38;;;;;;;4.53;3.33;;;3.90;99.90;;;;;;5034352;28;20290;-76
2020/12/24 09:03:29;;;;;;;5.33;3.27;;;4.00;99.90;;;;;;5029676;28;20179;-80
2020/12/24 09:05:54;;;;;;;4.30;3.23;;;4.00;99.90;;;;;;5030913;28;20175;-78
2020/12/24 09:08:27;;;;;;;4.47;3.40;;;4.00;99.90;;;;;;5012258;28;20654;-78
2020/12/24 09:10:53;;;;;;;4.43;3.50;;;4.00;99.90;;;;;;5012563;28;20203;-78
2020/12/24 09:13:19;;;;;;;3.83;3.37;;;4.00;99.90;;;;;;5030672;28;20273;-77
2020/12/24 09:15:45;;;;;;;3.90;3.50;;;4.00;99.90;;;;;;5029140;28;20331;-77
2020/12/24 09:18:10;;;;;;;4.30;3.60;;;4.10;99.90;;;;;;5028914;28;20183;-77
2020/12/24 09:20:36;;;;;;;4.57;3.70;;;4.10;99.90;;;;;;5028980;28;20259;-77
2020/12/24 09:23:07;;;;;;;4.90;3.97;;;4.10;99.90;;;;;;5017054;28;20183;-77
2020/12/24 09:25:42;;;;;;;4.30;3.27;;;4.10;99.90;;;;;;5035326;28;20533;-78
2020/12/24 09:28:20;;;;;;;3.70;3.20;;;4.20;99.90;;;;;;5033663;28;20248;-76
2020/12/24 09:30:46;;;;;;;3.30;3.00;;;4.30;99.90;;;;;;5050128;28;20199;-76
2020/12/24 09:33:11;;;;;;;3.33;3.00;;;4.30;99.90;;;;;;5033678;28;20193;-76
2020/12/24 09:35:37;;;;;;;4.23;3.23;;;4.30;99.90;;;;;;5034150;28;20202;-77
2020/12/24 09:38:02;;;;;;;4.00;3.60;;;4.30;99.90;;;;;;5013783;28;20653;-79
2020/12/24 09:40:28;;;;;;;4.30;3.20;;;4.40;99.90;;;;;;5017178;28;20632;-78
2020/12/24 09:42:54;;;;;;;5.03;3.27;;;4.50;99.90;;;;;;5035272;28;20531;-81
2020/12/24 09:45:19;;;;;;;4.03;3.20;;;4.60;99.90;;;;;;5036173;28;20182;-81
2020/12/24 09:47:46;;;;;;;3.90;2.77;;;4.60;99.90;;;;;;5033961;28;20292;-79
2020/12/24 09:50:11;;;;;;;3.70;2.83;;;4.60;99.90;;;;;;5033322;28;20214;-81
2020/12/24 09:52:37;;;;;;;3.10;2.80;;;4.60;99.90;;;;;;5033979;28;20554;-78
2020/12/24 09:55:03;;;;;;;2.80;2.50;;;4.70;99.90;;;;;;5033259;28;20248;-75
2020/12/24 09:57:29;;;;;;;2.87;2.63;;;4.80;99.90;;;;;;5035445;28;20189;-82
2020/12/24 09:59:54;;;;;;;8.63;5.27;;;4.70;99.90;;;;;;5035584;28;20214;-82
2020/12/24 10:02:20;;;;;;;6.27;4.90;;;4.70;99.90;;;;;;5035390;28;20179;-82
2020/12/24 10:04:45;;;;;;;9.73;6.10;;;4.70;99.90;;;;;;5034830;28;20619;-82
2020/12/24 10:07:11;;;;;;;9.00;5.90;;;4.70;99.90;;;;;;5032962;28;20194;-82
2020/12/24 10:09:37;;;;;;;6.33;5.10;;;4.70;99.90;;;;;;4998245;28;20206;-81
2020/12/24 10:12:02;;;;;;;5.83;4.23;;;4.80;99.90;;;;;;4998254;28;20176;-78
2020/12/24 10:14:28;;;;;;;4.03;3.60;;;4.80;99.90;;;;;;4997438;28;20229;-79
2020/12/24 10:16:53;;;;;;;3.17;2.87;;;4.80;99.90;;;;;;5014875;28;20189;-79
2020/12/24 10:19:19;;;;;;;2.90;2.60;;;4.80;99.90;;;;;;5015138;28;20180;-79
2020/12/24 10:21:44;;;;;;;3.73;2.40;;;4.90;99.90;;;;;;5002942;28;20180;-79
2020/12/24 10:24:10;;;;;;;4.77;2.63;;;5.00;99.90;;;;;;5021272;28;20203;-80
2020/12/24 10:26:35;;;;;;;3.03;2.73;;;5.00;99.90;;;;;;5004527;28;20258;-80
2020/12/24 10:29:02;;;;;;;3.30;2.60;;;5.10;99.90;;;;;;5004930;28;20182;-77
2020/12/24 10:31:27;;;;;;;4.97;2.70;;;5.10;99.90;;;;;;5011074;28;20202;-80
2020/12/24 10:33:53;;;;;;;4.23;3.30;;;5.20;99.90;;;;;;5021965;28;20233;-79
2020/12/24 10:36:23;;;;;;;3.63;3.33;;;5.30;99.90;;;;;;5000270;28;20195;-80
2020/12/24 10:38:49;;;;;;;7.43;3.80;;;5.40;99.90;;;;;;5016591;28;20183;-77
2020/12/24 10:41:15;;;;;;;5.03;4.17;;;5.40;99.90;;;;;;5016879;28;20209;-78
2020/12/24 10:43:41;;;;;;;4.07;3.67;;;5.30;99.90;;;;;;5023381;28;20187;-83
2020/12/24 10:46:07;;;;;;;5.87;4.00;;;5.30;99.90;;;;;;5024210;28;20235;-84
2020/12/24 10:48:32;;;;;;;4.33;3.93;;;5.40;99.90;;;;;;5023320;28;20270;-83
2020/12/24 10:50:58;;;;;;;4.17;3.77;;;5.40;99.90;;;;;;5023366;28;20297;-83
2020/12/24 10:53:23;;;;;;;5.37;4.40;;;5.40;99.90;;;;;;5024015;28;20630;-86
2020/12/24 10:55:49;;;;;;;4.50;4.10;;;5.30;99.90;;;;;;5016882;28;20266;-85
2020/12/24 10:58:15;;;;;;;5.60;4.73;;;5.40;99.90;;;;;;5017308;28;20671;-85
2020/12/24 11:00:41;;;;;;;5.20;4.57;;;5.30;99.90;;;;;;5017296;28;20275;-85
2020/12/24 11:03:06;;;;;;;5.83;5.10;;;5.30;99.90;;;;;;5016887;28;20784;-86
2020/12/24 11:05:32;;;;;;;6.47;5.77;;;5.40;99.90;;;;;;5002324;28;20191;-79
2020/12/24 11:07:57;;;;;;;7.37;5.57;;;5.40;99.90;;;;;;5020644;28;20304;-78
2020/12/24 11:10:23;;;;;;;6.93;5.30;;;5.50;99.90;;;;;;5020270;28;20202;-82
2020/12/24 11:12:48;;;;;;;5.83;5.23;;;5.60;99.90;;;;;;5037667;28;20186;-82
2020/12/24 11:15:14;;;;;;;6.13;5.00;;;5.70;99.90;;;;;;5038232;28;20224;-83
2020/12/24 11:17:40;;;;;;;6.30;4.87;;;5.70;99.90;;;;;;5036451;28;20245;-82
2020/12/24 11:20:05;;;;;;;5.60;5.10;;;5.80;99.90;;;;;;5016272;28;20241;-82
2020/12/24 11:22:31;;;;;;;5.57;4.43;;;5.80;99.90;;;;;;5018147;28;20198;-81
2020/12/24 11:24:57;;;;;;;8.53;5.33;;;5.90;99.90;;;;;;5017003;28;20191;-80
2020/12/24 11:27:23;;;;;;;6.10;5.07;;;5.90;99.90;;;;;;5016718;28;20214;-81
2020/12/24 11:29:48;;;;;;;8.90;5.73;;;5.90;99.90;;;;;;5015789;28;20205;-81
2020/12/24 11:32:14;;;;;;;5.50;5.00;;;5.90;99.90;;;;;;5017704;28;20179;-82
2020/12/24 11:34:39;;;;;;;5.77;5.13;;;5.90;99.90;;;;;;5005370;28;20183;-83
2020/12/24 11:37:05;;;;;;;5.83;5.20;;;5.90;99.90;;;;;;5007024;28;20658;-81
2020/12/24 11:39:31;;;;;;;6.27;5.53;;;6.00;99.90;;;;;;5005630;28;20584;-84
2020/12/24 11:41:56;;;;;;;6.77;4.87;;;6.10;99.90;;;;;;4988917;28;20209;-81
2020/12/24 11:44:22;;;;;;;4.83;4.10;;;6.00;99.90;;;;;;5024796;28;20182;-81
2020/12/24 11:46:47;;;;;;;5.43;3.93;;;6.10;99.90;;;;;;5039627;28;20222;-81
2020/12/24 11:49:13;;;;;;;4.90;3.50;;;6.10;99.90;;;;;;5026555;28;20175;-82
2020/12/24 11:51:38;;;;;;;3.50;3.20;;;6.00;99.90;;;;;;5038355;28;20190;-82
2020/12/24 11:54:04;;;;;;;3.60;3.07;;;6.20;99.90;;;;;;5013196;28;20639;-83
2020/12/24 11:56:29;;;;;;;4.57;3.00;;;6.20;99.90;;;;;;5025373;28;20205;-82
2020/12/24 11:58:55;;;;;;;3.90;3.10;;;6.20;99.90;;;;;;5014150;28;20259;-83
2020/12/24 12:01:21;;;;;;;3.43;3.00;;;6.20;99.90;;;;;;5016556;28;20207;-82
2020/12/24 12:03:47;;;;;;;5.93;3.93;;;6.20;99.90;;;;;;5013358;28;20179;-82
2020/12/24 12:06:12;;;;;;;5.43;3.10;;;6.10;99.90;;;;;;5013332;28;20234;-82
2020/12/24 12:08:38;;;;;;;4.40;2.93;;;6.10;99.90;;;;;;5013986;28;20582;-83
2020/12/24 12:11:04;;;;;;;4.97;2.67;;;6.10;99.90;;;;;;4998722;28;20203;-79
2020/12/24 12:13:29;;;;;;;4.43;2.70;;;6.10;99.90;;;;;;5014281;28;20186;-82
2020/12/24 12:15:55;;;;;;;2.93;2.53;;;6.20;99.90;;;;;;5016927;28;20243;-83
2020/12/24 12:18:21;;;;;;;6.20;2.80;;;6.20;99.90;;;;;;5019255;28;20186;-79
2020/12/24 12:20:46;;;;;;;5.50;2.50;;;6.20;99.90;;;;;;5032820;28;20265;-80
2020/12/24 12:23:12;;;;;;;6.50;2.70;;;6.20;99.90;;;;;;5001391;28;20184;-84
2020/12/24 12:25:37;;;;;;;5.50;2.90;;;6.30;99.90;;;;;;5011342;28;20190;-82
2020/12/24 12:28:03;;;;;;;5.63;2.70;;;6.20;99.90;;;;;;5018192;28;20210;-82
2020/12/24 12:30:28;;;;;;;9.37;2.80;;;6.20;99.90;;;;;;5020298;28;20210;-81
2020/12/24 12:32:54;;;;;;;5.10;2.70;;;6.20;99.90;;;;;;5012398;28;20283;-80
2020/12/24 12:35:20;;;;;;;4.63;2.70;;;6.10;99.90;;;;;;5004053;28;20180;-84
2020/12/24 12:37:45;;;;;;;6.87;2.87;;;6.10;99.90;;;;;;4988223;28;20188;-85
2020/12/24 12:40:11;;;;;;;5.60;2.47;;;6.00;99.90;;;;;;5004674;28;20207;-84
2020/12/24 12:42:36;;;;;;;7.07;3.20;;;6.00;99.90;;;;;;5005548;28;20234;-83
2020/12/24 12:45:03;;;;;;;4.50;2.93;;;6.10;99.90;;;;;;5006854;28;20180;-83
2020/12/24 12:47:28;;;;;;;6.63;3.30;;;6.10;99.90;;;;;;5016596;28;20302;-85
2020/12/24 12:49:54;;;;;;;8.60;3.33;;;6.20;99.90;;;;;;4983580;28;20227;-85
2020/12/24 12:52:19;;;;;;;3.77;2.70;;;6.10;99.90;;;;;;4983938;28;20183;-83
2020/12/24 12:54:45;;;;;;;7.13;3.37;;;6.20;99.90;;;;;;4988858;28;20179;-84